createdAt,value
2019-03-27T00:00:43.153Z,7.60
2019-03-27T00:03:12.318Z,7.50
2019-03-27T00:05:41.466Z,7.50
2019-03-27T00:08:12.259Z,7.50
2019-03-27T00:10:41.425Z,7.50
2019-03-27T00:13:10.663Z,7.40
2019-03-27T00:15:39.952Z,7.40
2019-03-27T00:18:10.763Z,7.30
2019-03-27T00:20:39.915Z,7.30
2019-03-27T00:23:09.124Z,7.20
2019-03-27T00:25:38.295Z,7.20
2019-03-27T00:28:07.471Z,7.10
2019-03-27T00:30:36.602Z,7.10
2019-03-27T00:33:05.751Z,7.00
2019-03-27T00:35:34.928Z,7.00
2019-03-27T00:38:04.075Z,6.90
2019-03-27T00:40:33.236Z,6.90
2019-03-27T00:43:02.404Z,6.80
2019-03-27T00:45:31.552Z,6.80
2019-03-27T00:48:00.803Z,6.70
2019-03-27T00:50:30.046Z,6.70
2019-03-27T00:52:59.199Z,6.60
2019-03-27T00:55:28.400Z,6.60
2019-03-27T00:57:57.573Z,6.50
2019-03-27T01:00:31.339Z,6.50
2019-03-27T01:03:00.491Z,6.40
2019-03-27T01:05:29.705Z,6.40
2019-03-27T01:07:58.858Z,6.40
2019-03-27T01:10:28.105Z,6.30
2019-03-27T01:12:57.334Z,6.30
2019-03-27T01:15:38.874Z,6.30
2019-03-27T01:17:57.361Z,6.20
2019-03-27T01:20:26.541Z,6.20
2019-03-27T01:22:55.710Z,6.10
2019-03-27T01:25:24.937Z,6.10
2019-03-27T01:27:55.734Z,6.10
2019-03-27T01:30:24.884Z,6.10
2019-03-27T01:32:54.057Z,6.10
2019-03-27T01:35:23.222Z,6.10
2019-03-27T01:37:52.385Z,6.10
2019-03-27T01:40:21.544Z,6.10
2019-03-27T01:42:50.768Z,6.10
2019-03-27T01:45:19.917Z,6.10
2019-03-27T01:47:49.104Z,6.20
2019-03-27T01:50:18.257Z,6.20
2019-03-27T01:52:47.412Z,6.20
2019-03-27T01:55:16.571Z,6.20
2019-03-27T01:57:45.867Z,6.20
2019-03-27T02:00:16.470Z,6.30
2019-03-27T02:02:44.921Z,6.30
2019-03-27T02:05:14.050Z,6.30
2019-03-27T02:07:43.219Z,6.40
2019-03-27T02:10:12.372Z,6.40
2019-03-27T02:12:41.522Z,6.40
2019-03-27T02:15:10.686Z,6.40
2019-03-27T02:17:39.917Z,6.40
2019-03-27T02:20:09.103Z,6.50
2019-03-27T02:22:38.255Z,6.50
2019-03-27T02:25:07.796Z,6.50
2019-03-27T02:27:36.966Z,6.50
2019-03-27T02:30:07.228Z,6.60
2019-03-27T02:32:36.365Z,6.60
2019-03-27T02:35:06.207Z,6.60
2019-03-27T02:37:35.476Z,6.60
2019-03-27T02:40:07.230Z,6.60
2019-03-27T02:42:36.463Z,6.70
2019-03-27T02:45:07.074Z,6.70
2019-03-27T02:47:35.579Z,6.70
2019-03-27T02:50:06.888Z,6.70
2019-03-27T02:52:36.071Z,6.70
2019-03-27T02:55:09.123Z,6.80
2019-03-27T02:57:38.270Z,6.70
2019-03-27T03:00:11.242Z,6.80
2019-03-27T03:02:40.419Z,6.80
2019-03-27T03:05:09.642Z,6.80
2019-03-27T03:07:38.799Z,6.80
2019-03-27T03:10:09.265Z,6.80
2019-03-27T03:12:38.442Z,6.80
2019-03-27T03:15:08.464Z,6.80
2019-03-27T03:17:37.634Z,6.80
2019-03-27T03:20:08.032Z,6.80
2019-03-27T03:22:38.847Z,6.80
2019-03-27T03:25:07.993Z,6.80
2019-03-27T03:27:37.151Z,6.80
2019-03-27T03:30:09.585Z,6.80
2019-03-27T03:32:38.803Z,6.80
2019-03-27T03:35:08.219Z,6.90
2019-03-27T03:37:37.372Z,6.90
2019-03-27T03:40:06.596Z,6.90
2019-03-27T03:42:35.755Z,6.90
2019-03-27T03:45:07.432Z,6.90
2019-03-27T03:47:36.575Z,6.90
2019-03-27T03:50:08.296Z,6.90
2019-03-27T03:52:37.463Z,6.90
2019-03-27T03:55:07.502Z,6.90
2019-03-27T03:57:37.149Z,6.90
2019-03-27T04:00:08.551Z,6.90
2019-03-27T04:02:37.780Z,6.90
2019-03-27T04:05:08.039Z,6.90
2019-03-27T04:07:37.189Z,6.90
2019-03-27T04:10:07.783Z,6.90
2019-03-27T04:12:36.296Z,6.90
2019-03-27T04:15:07.558Z,6.90
2019-03-27T04:17:36.713Z,7.00
2019-03-27T04:20:07.697Z,6.90
2019-03-27T04:22:37.439Z,6.90
2019-03-27T04:25:09.625Z,6.90
2019-03-27T04:27:38.810Z,7.00
2019-03-27T04:30:08.053Z,7.00
2019-03-27T04:32:37.216Z,7.00
2019-03-27T04:35:07.464Z,7.00
2019-03-27T04:37:36.583Z,7.00
2019-03-27T04:40:08.641Z,7.00
2019-03-27T04:42:37.793Z,7.00
2019-03-27T04:45:07.616Z,7.00
2019-03-27T04:47:36.805Z,7.00
2019-03-27T04:50:07.587Z,7.00
2019-03-27T04:52:36.738Z,7.00
2019-03-27T04:55:06.983Z,7.00
2019-03-27T04:57:36.202Z,7.10
2019-03-27T05:00:07.567Z,7.00
2019-03-27T05:02:36.817Z,7.00
2019-03-27T05:05:07.801Z,7.10
2019-03-27T05:07:36.955Z,7.00
2019-03-27T05:10:06.782Z,7.00
2019-03-27T05:12:38.689Z,7.10
2019-03-27T05:15:08.504Z,7.10
2019-03-27T05:17:45.692Z,7.10
2019-03-27T05:20:11.873Z,7.00
2019-03-27T05:22:41.023Z,7.10
2019-03-27T05:25:10.190Z,7.00
2019-03-27T05:27:39.353Z,7.00
2019-03-27T05:30:08.541Z,7.00
2019-03-27T05:32:37.682Z,7.00
2019-03-27T05:35:07.817Z,7.00
2019-03-27T05:37:36.975Z,6.90
2019-03-27T05:40:07.970Z,6.90
2019-03-27T05:42:37.138Z,7.00
2019-03-27T05:45:06.356Z,7.00
2019-03-27T05:47:35.872Z,7.00
2019-03-27T05:50:06.363Z,7.00
2019-03-27T05:52:35.518Z,7.10
2019-03-27T05:55:05.475Z,7.10
2019-03-27T05:57:34.673Z,7.10
2019-03-27T06:00:05.537Z,7.20
2019-03-27T06:02:34.711Z,7.20
2019-03-27T06:05:03.879Z,7.30
2019-03-27T06:07:33.038Z,7.40
2019-03-27T06:10:02.226Z,7.40
2019-03-27T06:12:31.396Z,7.50
2019-03-27T06:15:00.549Z,7.60
2019-03-27T06:17:31.340Z,7.60
2019-03-27T06:20:00.521Z,7.80
2019-03-27T06:22:29.766Z,7.80
2019-03-27T06:24:58.961Z,7.90
2019-03-27T06:27:28.123Z,7.90
2019-03-27T06:29:57.776Z,8.00
2019-03-27T06:32:26.987Z,8.10
2019-03-27T06:34:56.140Z,8.10
2019-03-27T06:37:25.298Z,8.20
2019-03-27T06:39:54.535Z,8.30
2019-03-27T06:42:26.036Z,8.30
2019-03-27T06:44:55.180Z,8.40
2019-03-27T06:47:24.422Z,8.40
2019-03-27T06:49:53.597Z,8.50
2019-03-27T06:52:29.180Z,8.50
2019-03-27T06:54:57.003Z,8.60
2019-03-27T06:57:26.181Z,8.70
2019-03-27T06:59:55.329Z,8.70
2019-03-27T07:02:28.504Z,8.80
2019-03-27T07:04:55.429Z,8.90
2019-03-27T07:07:24.587Z,8.90
2019-03-27T07:09:54.099Z,9.00
2019-03-27T07:12:23.249Z,9.00
2019-03-27T07:14:52.407Z,9.10
2019-03-27T07:17:21.638Z,9.20
2019-03-27T07:19:50.804Z,9.30
2019-03-27T07:22:19.963Z,9.40
2019-03-27T07:24:49.207Z,9.50
2019-03-27T07:27:18.450Z,9.60
2019-03-27T07:29:47.614Z,9.70
2019-03-27T07:32:16.791Z,9.80
2019-03-27T07:34:45.946Z,10.00
2019-03-27T07:37:17.302Z,10.10
2019-03-27T07:40:13.809Z,10.20
2019-03-27T07:42:28.871Z,10.30
2019-03-27T07:44:58.597Z,10.30
2019-03-27T07:47:29.787Z,10.40
2019-03-27T07:50:11.908Z,10.40
2019-03-27T07:52:41.200Z,10.40
2019-03-27T07:55:19.227Z,10.30
2019-03-27T07:57:41.238Z,10.30
2019-03-27T08:00:18.135Z,10.20
2019-03-27T08:02:47.430Z,10.20
2019-03-27T08:05:16.591Z,10.20
2019-03-27T08:07:53.222Z,10.20
2019-03-27T08:10:31.410Z,10.20
2019-03-27T08:13:10.632Z,10.10
2019-03-27T08:15:41.112Z,10.00
2019-03-27T08:18:29.655Z,10.00
2019-03-27T08:21:04.588Z,9.90
2019-03-27T08:23:55.390Z,9.90
2019-03-27T08:26:42.230Z,9.90
2019-03-27T08:29:17.342Z,9.90
2019-03-27T08:31:52.664Z,10.00
2019-03-27T08:34:19.147Z,10.10
2019-03-27T08:36:48.339Z,10.10
2019-03-27T08:39:17.492Z,10.20
2019-03-27T08:41:46.671Z,10.20
2019-03-27T08:44:15.965Z,10.30
2019-03-27T08:46:45.122Z,10.40
2019-03-27T08:49:21.828Z,10.40
2019-03-27T08:51:45.235Z,10.50
2019-03-27T08:54:14.398Z,10.60
2019-03-27T08:56:43.574Z,10.70
2019-03-27T08:59:12.737Z,10.80
2019-03-27T09:01:41.907Z,11.00
2019-03-27T09:04:11.095Z,11.10
2019-03-27T09:06:40.590Z,11.20
2019-03-27T09:09:09.761Z,11.30
2019-03-27T09:11:38.924Z,11.30
2019-03-27T09:14:08.143Z,11.30
2019-03-27T09:16:37.327Z,11.30
2019-03-27T09:19:06.495Z,11.30
2019-03-27T09:21:35.662Z,11.40
2019-03-27T09:24:04.846Z,11.50
2019-03-27T09:26:35.671Z,11.60
2019-03-27T09:29:08.153Z,11.80
2019-03-27T09:31:44.836Z,11.90
2019-03-27T09:34:06.654Z,12.10
2019-03-27T09:36:36.019Z,12.20
2019-03-27T09:39:08.670Z,12.30
2019-03-27T09:41:37.826Z,12.20
2019-03-27T09:44:07.002Z,12.10
2019-03-27T09:46:36.181Z,12.00
2019-03-27T09:49:05.379Z,11.80
2019-03-27T09:51:34.531Z,11.70
2019-03-27T09:54:03.701Z,11.70
2019-03-27T09:56:34.682Z,11.70
2019-03-27T09:59:06.006Z,11.70
2019-03-27T10:01:35.016Z,11.70
2019-03-27T10:04:05.287Z,11.60
2019-03-27T10:06:34.530Z,11.50
2019-03-27T10:09:04.459Z,11.50
2019-03-27T10:11:33.617Z,11.60
2019-03-27T10:14:02.810Z,11.80
2019-03-27T10:16:32.023Z,12.00
2019-03-27T10:19:01.205Z,12.20
2019-03-27T10:21:30.363Z,12.20
2019-03-27T10:23:59.582Z,12.30
2019-03-27T10:26:28.773Z,12.40
2019-03-27T10:28:59.419Z,12.40
2019-03-27T10:31:27.953Z,12.40
2019-03-27T10:33:57.230Z,12.40
2019-03-27T10:36:26.396Z,12.30
2019-03-27T10:38:55.661Z,12.30
2019-03-27T10:41:24.831Z,12.20
2019-03-27T10:43:54.069Z,12.30
2019-03-27T10:46:23.234Z,12.40
2019-03-27T10:48:53.234Z,12.60
2019-03-27T10:51:22.511Z,12.60
2019-03-27T10:53:51.666Z,12.70
2019-03-27T10:56:20.851Z,12.80
2019-03-27T10:58:50.081Z,12.80
2019-03-27T11:01:19.238Z,12.60
2019-03-27T11:03:48.422Z,12.50
2019-03-27T11:06:17.570Z,12.40
2019-03-27T11:08:46.728Z,12.40
2019-03-27T11:11:15.899Z,12.30
2019-03-27T11:13:45.061Z,12.30
2019-03-27T11:16:14.223Z,12.30
2019-03-27T11:18:43.427Z,12.40
2019-03-27T11:21:12.584Z,12.50
2019-03-27T11:23:41.829Z,12.60
2019-03-27T11:26:11.060Z,12.70
2019-03-27T11:28:40.218Z,12.60
2019-03-27T11:31:09.375Z,12.70
2019-03-27T11:33:38.632Z,12.70
2019-03-27T11:36:07.796Z,12.80
2019-03-27T11:38:37.633Z,12.90
2019-03-27T11:41:07.009Z,12.90
2019-03-27T11:43:36.157Z,13.00
2019-03-27T11:46:06.204Z,13.10
2019-03-27T11:48:35.458Z,13.10
2019-03-27T11:51:04.641Z,13.20
2019-03-27T11:53:33.808Z,13.40
2019-03-27T11:56:03.531Z,13.50
2019-03-27T11:58:33.023Z,13.60
2019-03-27T12:01:02.191Z,13.60
2019-03-27T12:03:31.436Z,13.70
2019-03-27T12:06:00.613Z,13.60
2019-03-27T12:08:29.778Z,13.60
2019-03-27T12:10:59.017Z,13.70
2019-03-27T12:13:28.188Z,13.60
2019-03-27T12:15:57.353Z,13.60
2019-03-27T12:18:26.528Z,13.50
2019-03-27T12:20:59.358Z,13.60
2019-03-27T12:23:26.595Z,13.50
2019-03-27T12:25:55.778Z,13.60
2019-03-27T12:28:24.995Z,13.80
2019-03-27T12:30:54.185Z,13.90
2019-03-27T12:33:23.350Z,14.10
2019-03-27T12:35:52.512Z,14.20
2019-03-27T12:38:21.672Z,14.20
2019-03-27T12:40:50.828Z,14.10
2019-03-27T12:43:19.996Z,13.90
2019-03-27T12:45:49.166Z,13.80
2019-03-27T12:48:18.335Z,13.80
2019-03-27T12:50:47.579Z,13.70
2019-03-27T12:53:16.737Z,13.70
2019-03-27T12:55:45.907Z,13.80
2019-03-27T12:58:16.695Z,14.00
2019-03-27T13:00:45.861Z,14.00
2019-03-27T13:03:15.093Z,14.20
2019-03-27T13:05:44.301Z,14.20
2019-03-27T13:08:13.462Z,14.20
2019-03-27T13:10:42.636Z,14.20
2019-03-27T13:13:11.799Z,14.10
2019-03-27T13:15:41.061Z,14.10
2019-03-27T13:18:10.575Z,14.10
2019-03-27T13:20:39.760Z,14.00
2019-03-27T13:23:08.927Z,14.10
2019-03-27T13:25:38.075Z,14.10
2019-03-27T13:28:07.236Z,14.10
2019-03-27T13:30:36.435Z,14.20
2019-03-27T13:33:05.571Z,14.20
2019-03-27T13:35:34.813Z,14.20
2019-03-27T13:38:04.694Z,14.20
2019-03-27T13:40:33.935Z,14.30
2019-03-27T13:43:03.109Z,14.30
2019-03-27T13:45:32.425Z,14.20
2019-03-27T13:48:01.634Z,14.20
2019-03-27T13:50:30.885Z,14.20
2019-03-27T13:53:00.047Z,14.10
2019-03-27T13:55:29.284Z,14.00
2019-03-27T13:57:58.444Z,14.00
2019-03-27T14:00:27.625Z,13.90
2019-03-27T14:02:56.893Z,13.90
2019-03-27T14:05:26.056Z,13.90
2019-03-27T14:07:55.230Z,13.90
2019-03-27T14:10:24.411Z,13.80
2019-03-27T14:12:53.557Z,13.80
2019-03-27T14:15:22.737Z,13.70
2019-03-27T14:17:52.162Z,13.70
2019-03-27T14:20:21.505Z,13.70
2019-03-27T14:22:50.674Z,13.70
2019-03-27T14:25:22.111Z,13.70
2019-03-27T14:27:50.808Z,13.80
2019-03-27T14:30:36.834Z,13.70
2019-03-27T14:33:05.997Z,13.70
2019-03-27T14:35:35.176Z,13.80
2019-03-27T14:38:04.340Z,13.80
2019-03-27T14:40:33.498Z,13.90
2019-03-27T14:43:02.672Z,13.90
2019-03-27T14:45:31.849Z,13.90
2019-03-27T14:48:01.034Z,14.00
2019-03-27T14:50:30.264Z,14.10
2019-03-27T14:52:59.451Z,14.10
2019-03-27T14:55:28.619Z,14.10
2019-03-27T14:57:57.792Z,14.10
2019-03-27T15:00:26.965Z,14.10
2019-03-27T15:03:19.783Z,14.10
2019-03-27T15:05:55.099Z,14.10
2019-03-27T15:08:32.186Z,14.20
2019-03-27T15:11:02.518Z,14.20
2019-03-27T15:13:34.859Z,14.20
2019-03-27T15:16:10.858Z,14.20
2019-03-27T15:18:41.787Z,14.10
2019-03-27T15:21:17.176Z,14.10
2019-03-27T15:23:48.842Z,14.00
2019-03-27T15:26:17.524Z,14.00
2019-03-27T15:28:46.772Z,14.00
2019-03-27T15:31:20.748Z,14.00
2019-03-27T15:33:53.250Z,14.00
2019-03-27T15:36:22.534Z,13.90
2019-03-27T15:38:51.778Z,13.80
2019-03-27T15:44:28.425Z,13.80
2019-03-27T15:46:57.605Z,13.70
2019-03-27T15:49:26.857Z,13.60
2019-03-27T15:51:56.026Z,13.60
2019-03-27T15:54:25.305Z,13.50
2019-03-27T15:56:54.467Z,13.50
2019-03-27T15:59:23.629Z,13.50
2019-03-27T16:01:52.820Z,13.40
2019-03-27T16:04:21.987Z,13.30
2019-03-27T16:06:51.169Z,13.30
2019-03-27T16:09:21.512Z,13.30
2019-03-27T16:11:50.668Z,13.30
2019-03-27T16:14:19.859Z,13.30
2019-03-27T16:17:06.734Z,13.30
2019-03-27T16:19:19.917Z,13.20
2019-03-27T16:21:49.094Z,13.20
2019-03-27T16:24:18.247Z,13.10
2019-03-27T16:26:58.513Z,13.10
2019-03-27T16:29:18.451Z,13.10
2019-03-27T16:31:47.631Z,13.00
2019-03-27T16:34:16.830Z,13.00
2019-03-27T16:36:46.057Z,13.00
2019-03-27T16:39:15.286Z,13.00
2019-03-27T16:41:44.539Z,12.90
2019-03-27T16:44:13.784Z,12.90
2019-03-27T16:46:42.959Z,12.90
2019-03-27T16:49:12.142Z,12.90
2019-03-27T16:51:41.303Z,12.80
2019-03-27T16:54:10.462Z,12.80
2019-03-27T16:56:39.624Z,12.80
2019-03-27T16:59:08.785Z,12.70
2019-03-27T17:01:38.039Z,12.70
2019-03-27T17:04:07.233Z,12.70
2019-03-27T17:06:36.550Z,12.60
2019-03-27T17:09:07.825Z,12.60
2019-03-27T17:11:37.053Z,12.60
2019-03-27T17:14:06.225Z,12.60
2019-03-27T17:16:35.403Z,12.60
2019-03-27T17:19:04.576Z,12.60
2019-03-27T17:21:38.144Z,12.50
2019-03-27T17:24:07.320Z,12.50
2019-03-27T17:26:36.548Z,12.40
2019-03-27T17:29:09.819Z,12.40
2019-03-27T17:31:39.365Z,12.40
2019-03-27T17:34:08.538Z,12.30
2019-03-27T17:36:37.733Z,12.30
2019-03-27T17:39:08.425Z,12.30
2019-03-27T17:41:38.220Z,12.30
2019-03-27T17:44:07.397Z,12.30
2019-03-27T17:46:36.565Z,12.30
2019-03-27T17:49:05.791Z,12.30
2019-03-27T17:51:35.045Z,12.20
2019-03-27T17:54:04.266Z,12.20
2019-03-27T17:56:33.496Z,12.20
2019-03-27T17:59:02.728Z,12.20
2019-03-27T18:01:31.904Z,12.20
2019-03-27T18:04:01.065Z,12.10
2019-03-27T18:06:30.245Z,12.10
2019-03-27T18:09:02.414Z,12.10
2019-03-27T18:11:31.590Z,12.00
2019-03-27T18:14:00.780Z,12.00
2019-03-27T18:16:29.936Z,12.00
2019-03-27T18:18:59.098Z,12.00
2019-03-27T18:21:28.275Z,12.00
2019-03-27T18:23:57.430Z,11.90
2019-03-27T18:26:26.617Z,11.90
2019-03-27T18:28:55.805Z,11.90
2019-03-27T18:31:24.960Z,11.80
2019-03-27T18:33:54.145Z,11.80
2019-03-27T18:36:23.388Z,11.80
2019-03-27T18:38:52.577Z,11.80
2019-03-27T18:41:21.761Z,11.80
2019-03-27T18:43:50.932Z,11.70
2019-03-27T18:46:20.096Z,11.70
2019-03-27T18:48:49.352Z,11.70
2019-03-27T18:51:18.591Z,11.70
2019-03-27T18:53:59.066Z,11.60
2019-03-27T18:56:18.651Z,11.60
2019-03-27T18:58:47.983Z,11.60
2019-03-27T19:01:18.778Z,11.60
2019-03-27T19:03:47.933Z,11.50
2019-03-27T19:06:17.160Z,11.50
2019-03-27T19:08:46.353Z,11.50
2019-03-27T19:11:15.518Z,11.50
2019-03-27T19:13:44.695Z,11.50
2019-03-27T19:16:13.856Z,11.50
2019-03-27T19:18:43.027Z,11.50
2019-03-27T19:21:12.222Z,11.40
2019-03-27T19:23:41.497Z,11.40
2019-03-27T19:26:10.749Z,11.40
2019-03-27T19:28:39.979Z,11.40
2019-03-27T19:31:09.218Z,11.30
2019-03-27T19:33:38.392Z,11.30
2019-03-27T19:36:07.559Z,11.30
2019-03-27T19:38:36.731Z,11.30
2019-03-27T19:41:05.899Z,11.20
2019-03-27T19:43:35.103Z,11.20
2019-03-27T19:46:10.385Z,11.20
2019-03-27T19:48:43.732Z,11.20
2019-03-27T19:51:19.009Z,11.20
2019-03-27T19:53:52.726Z,11.10
2019-03-27T19:56:25.176Z,11.10
2019-03-27T19:58:55.892Z,11.10
2019-03-27T20:01:27.648Z,11.10
2019-03-27T20:04:03.091Z,11.10
2019-03-27T20:06:50.039Z,11.10
2019-03-27T20:09:21.885Z,11.00
2019-03-27T20:11:53.846Z,11.00
2019-03-27T20:14:24.928Z,11.00
2019-03-27T20:16:54.131Z,10.90
2019-03-27T20:19:23.526Z,10.90
2019-03-27T20:21:52.748Z,10.90
2019-03-27T20:24:25.506Z,10.90
2019-03-27T20:26:54.422Z,10.90
2019-03-27T20:29:23.591Z,10.90
2019-03-27T20:31:52.743Z,10.90
2019-03-27T20:34:21.910Z,10.90
2019-03-27T20:36:51.080Z,10.90
2019-03-27T20:39:20.252Z,10.90
2019-03-27T20:41:49.425Z,10.80
2019-03-27T20:44:18.630Z,10.80
2019-03-27T20:46:47.930Z,10.80
2019-03-27T20:49:17.161Z,10.90
2019-03-27T20:51:46.337Z,10.80
2019-03-27T20:54:15.500Z,10.80
2019-03-27T20:56:46.808Z,10.80
2019-03-27T20:59:18.297Z,10.80
2019-03-27T21:01:58.487Z,10.80
2019-03-27T21:04:36.072Z,10.80
2019-03-27T21:07:06.094Z,10.80
2019-03-27T21:09:35.540Z,10.80
2019-03-27T21:12:11.286Z,10.70
2019-03-27T21:14:42.232Z,10.70
2019-03-27T21:17:15.316Z,10.80
2019-03-27T21:19:48.838Z,10.80
2019-03-27T21:22:18.005Z,10.70
2019-03-27T21:24:47.161Z,10.80
2019-03-27T21:27:20.967Z,10.70
2019-03-27T21:29:50.143Z,10.80
2019-03-27T21:32:19.312Z,10.70
2019-03-27T21:34:57.313Z,10.70
2019-03-27T21:37:30.431Z,10.70
2019-03-27T21:40:08.973Z,10.70
2019-03-27T21:42:38.244Z,10.70
2019-03-27T21:45:17.429Z,10.70
2019-03-27T21:47:50.978Z,10.70
2019-03-27T21:50:24.808Z,10.70
2019-03-27T21:53:00.488Z,10.70
2019-03-27T21:55:25.181Z,10.70
2019-03-27T21:57:54.368Z,10.70
2019-03-27T22:00:39.982Z,10.70
2019-03-27T22:03:09.182Z,10.70
2019-03-27T22:05:38.442Z,10.60
2019-03-27T22:08:07.655Z,10.60
2019-03-27T22:10:37.002Z,10.60
2019-03-27T22:13:06.537Z,10.60
2019-03-27T22:15:35.751Z,10.60
2019-03-27T22:18:04.953Z,10.60
2019-03-27T22:20:34.581Z,10.60
2019-03-27T22:23:03.778Z,10.50
2019-03-27T22:25:36.103Z,10.50
2019-03-27T22:28:03.893Z,10.50
2019-03-27T22:30:33.084Z,10.50
2019-03-27T22:33:02.298Z,10.50
2019-03-27T22:35:31.537Z,10.40
2019-03-27T22:38:00.757Z,10.50
2019-03-27T22:40:29.945Z,10.40
2019-03-27T22:42:59.146Z,10.40
2019-03-27T22:45:28.377Z,10.40
2019-03-27T22:47:57.741Z,10.40
2019-03-27T22:50:26.959Z,10.40
2019-03-27T22:52:56.184Z,10.40
2019-03-27T22:55:25.391Z,10.40
2019-03-27T22:57:54.571Z,10.40
2019-03-27T23:00:25.401Z,10.40
2019-03-27T23:02:54.627Z,10.30
2019-03-27T23:05:30.219Z,10.40
2019-03-27T23:08:02.799Z,10.40
2019-03-27T23:10:51.227Z,10.40
2019-03-27T23:13:24.678Z,10.30
2019-03-27T23:15:57.145Z,10.30
2019-03-27T23:18:43.883Z,10.30
2019-03-27T23:21:13.158Z,10.30
2019-03-27T23:23:42.350Z,10.20
2019-03-27T23:26:11.535Z,10.30
2019-03-27T23:28:40.741Z,10.30
2019-03-27T23:31:09.919Z,10.30
2019-03-27T23:33:39.131Z,10.20
2019-03-27T23:36:08.347Z,10.20
2019-03-27T23:38:37.675Z,10.20
2019-03-27T23:41:06.891Z,10.20
2019-03-27T23:43:36.076Z,10.20
2019-03-27T23:46:05.263Z,10.20
2019-03-27T23:48:34.461Z,10.20
2019-03-27T23:51:03.646Z,10.20
2019-03-27T23:53:32.911Z,10.20
2019-03-27T23:56:02.122Z,10.20
2019-03-27T23:58:33.036Z,10.20
